createdAt,value
2022-09-26T00:00:32.359Z,12.00
2022-09-26T00:03:36.114Z,12.11
2022-09-26T00:06:39.192Z,12.34
2022-09-26T00:09:46.137Z,12.15
2022-09-26T00:12:58.413Z,12.05
2022-09-26T00:16:22.145Z,12.03
2022-09-26T00:19:25.322Z,11.99
2022-09-26T00:22:28.814Z,11.96
2022-09-26T00:25:35.606Z,12.23
2022-09-26T00:28:43.190Z,12.35
2022-09-26T00:31:49.011Z,12.34
2022-09-26T00:34:52.205Z,12.29
2022-09-26T00:37:55.158Z,12.13
2022-09-26T00:41:00.512Z,12.10
2022-09-26T00:44:42.787Z,12.16
2022-09-26T00:48:01.167Z,12.18
2022-09-26T00:51:06.311Z,12.12
2022-09-26T00:54:28.459Z,12.35
2022-09-26T00:57:40.100Z,12.34
2022-09-26T01:00:51.463Z,12.16
2022-09-26T01:03:54.730Z,12.21
2022-09-26T01:07:01.833Z,12.40
2022-09-26T01:10:06.220Z,12.20
2022-09-26T01:13:09.926Z,12.14
2022-09-26T01:16:13.354Z,12.12
2022-09-26T01:19:39.509Z,12.15
2022-09-26T01:23:31.251Z,12.16
2022-09-26T01:27:15.662Z,12.26
2022-09-26T01:30:54.357Z,12.26
2022-09-26T01:34:24.499Z,12.39
2022-09-26T01:37:40.319Z,12.35
2022-09-26T01:41:05.272Z,12.37
2022-09-26T01:44:32.667Z,12.51
2022-09-26T01:47:44.759Z,12.46
2022-09-26T01:51:02.378Z,12.46
2022-09-26T01:54:20.593Z,12.13
2022-09-26T01:57:38.318Z,12.12
2022-09-26T02:00:45.501Z,12.12
2022-09-26T02:04:01.784Z,12.17
2022-09-26T02:07:18.786Z,12.16
2022-09-26T02:10:28.930Z,12.28
2022-09-26T02:14:00.325Z,12.18
2022-09-26T02:17:15.167Z,12.31
2022-09-26T02:20:23.785Z,12.40
2022-09-26T02:23:27.201Z,12.30
2022-09-26T02:26:30.179Z,12.31
2022-09-26T02:29:35.673Z,12.37
2022-09-26T02:32:40.500Z,12.36
2022-09-26T02:35:56.031Z,12.34
2022-09-26T02:39:01.156Z,12.22
2022-09-26T02:42:17.670Z,12.17
2022-09-26T02:45:40.445Z,12.19
2022-09-26T02:49:02.802Z,11.96
2022-09-26T02:52:17.609Z,12.22
2022-09-26T02:55:52.983Z,12.18
2022-09-26T02:59:07.422Z,12.05
2022-09-26T03:02:24.680Z,12.23
2022-09-26T03:05:33.103Z,12.47
2022-09-26T03:08:45.119Z,12.38
2022-09-26T03:11:50.898Z,12.48
2022-09-26T03:14:58.819Z,12.57
2022-09-26T03:18:08.999Z,12.39
2022-09-26T03:21:11.995Z,12.28
2022-09-26T03:24:15.011Z,12.29
2022-09-26T03:27:20.367Z,11.89
2022-09-26T03:30:24.884Z,11.95
2022-09-26T03:33:35.330Z,12.01
2022-09-26T03:36:39.823Z,12.01
2022-09-26T03:39:44.891Z,11.95
2022-09-26T03:42:48.596Z,11.98
2022-09-26T03:45:51.660Z,11.97
2022-09-26T03:48:55.852Z,11.90
2022-09-26T03:52:03.238Z,11.89
2022-09-26T03:55:06.816Z,12.04
2022-09-26T03:58:14.091Z,12.05
2022-09-26T04:01:21.860Z,12.05
2022-09-26T04:04:25.100Z,11.90
2022-09-26T04:07:28.765Z,11.89
2022-09-26T04:10:33.482Z,11.96
2022-09-26T04:13:51.325Z,12.02
2022-09-26T04:16:55.789Z,11.99
2022-09-26T04:20:09.865Z,11.87
2022-09-26T04:23:58.190Z,12.34
2022-09-26T04:27:18.706Z,12.13
2022-09-26T04:30:26.222Z,12.02
2022-09-26T04:33:45.506Z,12.03
2022-09-26T04:37:06.121Z,11.95
2022-09-26T04:51:55.907Z,11.96
2022-09-26T04:55:04.931Z,11.87
2022-09-26T04:58:30.245Z,11.95
2022-09-26T05:01:58.829Z,11.96
2022-09-26T05:05:01.891Z,11.88
2022-09-26T05:08:05.907Z,11.96
2022-09-26T05:11:09.773Z,11.95
2022-09-26T05:14:16.209Z,11.95
2022-09-26T05:17:24.376Z,11.99
2022-09-26T05:20:32.730Z,12.09
2022-09-26T05:24:02.696Z,12.13
2022-09-26T05:27:09.274Z,12.17
2022-09-26T05:30:20.008Z,12.22
2022-09-26T05:33:24.847Z,12.24
2022-09-26T05:36:51.300Z,12.27
2022-09-26T05:40:17.083Z,12.30
2022-09-26T05:43:33.043Z,12.36
2022-09-26T05:46:49.319Z,12.35
2022-09-26T05:50:10.348Z,12.36
2022-09-26T05:53:14.054Z,12.32
2022-09-26T05:56:21.356Z,12.45
2022-09-26T05:59:25.713Z,12.42
2022-09-26T06:03:04.395Z,12.45
2022-09-26T06:06:30.075Z,12.51
2022-09-26T06:09:37.310Z,12.56
2022-09-26T06:13:14.298Z,12.55
2022-09-26T06:17:03.339Z,12.63
2022-09-26T06:20:28.134Z,12.70
2022-09-26T06:23:51.608Z,12.72
2022-09-26T06:27:16.032Z,12.75
2022-09-26T06:30:39.981Z,12.78
2022-09-26T06:34:08.370Z,12.79
2022-09-26T06:37:35.896Z,12.94
2022-09-26T06:41:03.567Z,13.09
2022-09-26T06:44:10.964Z,13.08
2022-09-26T06:47:19.305Z,13.21
2022-09-26T06:50:44.252Z,13.18
2022-09-26T09:55:25.934Z,16.65
2022-09-26T09:59:22.074Z,16.86
2022-09-26T10:03:01.562Z,16.70
2022-09-26T10:06:44.526Z,16.52
2022-09-26T10:09:51.960Z,16.49
2022-09-26T10:13:05.373Z,16.49
2022-09-26T10:16:33.414Z,16.37
2022-09-26T10:19:58.799Z,16.08
2022-09-26T10:23:18.446Z,16.27
2022-09-26T10:26:37.084Z,16.50
2022-09-26T10:29:41.123Z,16.80
2022-09-26T10:32:59.122Z,16.68
2022-09-26T10:36:43.489Z,16.89
2022-09-26T10:40:14.812Z,17.26
2022-09-26T10:43:38.317Z,17.19
2022-09-26T10:47:10.348Z,16.94
2022-09-26T10:50:27.869Z,16.74
2022-09-26T10:53:42.741Z,16.73
2022-09-26T10:56:56.174Z,16.66
2022-09-26T11:00:43.409Z,17.16
2022-09-26T11:03:47.687Z,17.54
2022-09-26T11:06:55.015Z,17.63
2022-09-26T11:13:58.913Z,17.35
2022-09-26T11:17:08.432Z,17.63
2022-09-26T11:20:18.313Z,17.92
2022-09-26T11:24:05.587Z,17.89
2022-09-26T11:28:01.133Z,17.97
2022-09-26T11:31:26.002Z,18.39
2022-09-26T11:34:41.184Z,18.37
2022-09-26T11:38:00.175Z,18.29
2022-09-26T11:41:36.775Z,18.37
2022-09-26T11:44:55.667Z,18.32
2022-09-26T11:48:35.965Z,18.93
2022-09-26T11:52:52.365Z,19.12
2022-09-26T11:56:07.328Z,18.94
2022-09-26T11:59:58.284Z,18.82
2022-09-26T12:03:33.591Z,18.89
2022-09-26T12:07:07.454Z,18.58
2022-09-26T12:10:40.810Z,19.08
2022-09-26T12:14:49.246Z,18.31
2022-09-26T12:18:21.986Z,17.80
2022-09-26T12:22:09.017Z,18.15
2022-09-26T12:25:56.489Z,18.11
2022-09-26T12:34:00.809Z,18.29
2022-09-26T12:37:43.293Z,18.47
2022-09-26T12:41:23.126Z,18.59
2022-09-26T12:44:37.394Z,18.66
2022-09-26T12:48:27.354Z,18.82
2022-09-26T12:51:42.936Z,18.77
2022-09-26T12:55:03.113Z,18.57
2022-09-26T12:58:38.811Z,18.66
2022-09-26T13:02:01.693Z,18.61
2022-09-26T13:05:38.773Z,18.40
2022-09-26T13:09:24.669Z,18.59
2022-09-26T13:12:40.629Z,18.78
2022-09-26T13:16:11.414Z,18.55
2022-09-26T13:19:35.535Z,18.89
2022-09-26T13:22:56.134Z,18.85
2022-09-26T13:26:14.623Z,18.89
2022-09-26T13:29:35.757Z,18.87
2022-09-26T13:33:05.673Z,18.65
2022-09-26T13:36:11.199Z,18.76
2022-09-26T13:39:25.371Z,18.94
2022-09-26T13:42:45.359Z,18.51
2022-09-26T13:46:16.124Z,18.72
2022-09-26T13:49:40.368Z,18.61
2022-09-26T13:53:20.441Z,18.65
2022-09-26T13:56:34.103Z,18.82
2022-09-26T13:59:54.515Z,18.67
2022-09-26T14:03:21.194Z,18.69
2022-09-26T14:06:30.987Z,18.72
2022-09-26T14:09:52.511Z,18.55
2022-09-26T14:13:41.305Z,18.42
2022-09-26T14:16:54.784Z,18.73
2022-09-26T14:20:00.365Z,18.70
2022-09-26T14:23:05.234Z,18.34
2022-09-26T14:26:29.095Z,18.24
2022-09-26T14:29:33.949Z,18.12
2022-09-26T14:32:45.595Z,17.92
2022-09-26T14:35:48.760Z,18.00
2022-09-26T14:38:57.703Z,18.00
2022-09-26T14:42:39.704Z,17.98
2022-09-26T14:46:01.063Z,18.18
2022-09-26T14:53:36.751Z,17.98
2022-09-26T14:56:59.749Z,17.79
2022-09-26T15:00:35.253Z,17.73
2022-09-26T15:03:40.436Z,18.00
2022-09-26T15:07:01.063Z,17.78
2022-09-26T15:10:13.728Z,17.93
2022-09-26T15:13:17.028Z,17.98
2022-09-26T15:16:34.716Z,17.72
2022-09-26T15:19:45.465Z,17.65
2022-09-26T15:22:50.095Z,17.45
2022-09-26T15:26:00.297Z,17.24
2022-09-26T15:29:13.109Z,17.21
2022-09-26T15:32:26.762Z,17.02
2022-09-26T15:35:50.540Z,16.83
2022-09-26T15:39:35.491Z,16.64
2022-09-26T15:42:57.488Z,16.59
2022-09-26T15:46:03.488Z,16.47
2022-09-26T15:49:17.240Z,16.38
2022-09-26T15:52:23.215Z,16.39
2022-09-26T15:55:50.976Z,16.31
2022-09-26T15:59:10.328Z,16.23
2022-09-26T16:02:23.695Z,16.05
2022-09-26T16:05:28.111Z,16.00
2022-09-26T16:08:58.578Z,15.99
2022-09-26T16:12:16.533Z,15.86
2022-09-26T16:15:28.584Z,15.69
2022-09-26T16:19:29.015Z,15.53
2022-09-26T16:22:46.525Z,15.32
2022-09-26T16:26:01.592Z,15.19
2022-09-26T16:29:52.002Z,15.20
2022-09-26T16:33:40.034Z,15.11
2022-09-26T16:52:35.493Z,14.30
2022-09-26T16:56:22.087Z,14.15
2022-09-26T17:00:32.940Z,14.04
2022-09-26T17:26:27.045Z,13.14
2022-09-26T17:30:32.515Z,12.92
2022-09-26T17:33:57.372Z,12.74
2022-09-26T17:37:05.899Z,12.64
2022-09-26T17:40:49.164Z,12.64
2022-09-26T17:44:52.288Z,12.55
2022-09-26T17:48:27.136Z,12.48
2022-09-26T17:51:42.831Z,12.38
2022-09-26T17:55:25.446Z,12.32
2022-09-26T18:06:34.803Z,12.04
2022-09-26T18:09:39.232Z,11.88
2022-09-26T18:12:42.235Z,11.84
2022-09-26T18:15:45.342Z,11.79
2022-09-26T18:18:48.102Z,11.52
2022-09-26T18:21:55.534Z,11.62
2022-09-26T18:25:06.572Z,11.56
2022-09-26T18:28:15.845Z,11.50
2022-09-26T18:31:29.232Z,11.46
2022-09-26T18:34:32.642Z,11.39
2022-09-26T18:37:35.330Z,11.35
2022-09-26T18:40:43.465Z,11.35
2022-09-26T18:43:52.282Z,11.25
2022-09-26T18:46:59.596Z,11.47
2022-09-26T18:50:06.396Z,11.38
2022-09-26T18:53:21.251Z,11.43
2022-09-26T18:56:42.792Z,11.39
2022-09-26T18:59:45.850Z,11.25
2022-09-26T19:02:50.383Z,11.36
2022-09-26T19:06:18.517Z,11.50
2022-09-26T19:09:22.767Z,11.59
2022-09-26T19:12:25.798Z,11.60
2022-09-26T19:15:29.021Z,11.72
2022-09-26T19:18:32.091Z,11.94
2022-09-26T19:21:46.661Z,11.97
2022-09-26T19:25:00.275Z,11.86
2022-09-26T19:28:03.123Z,11.93
2022-09-26T19:31:06.265Z,11.91
2022-09-26T19:34:16.301Z,11.99
2022-09-26T19:37:19.671Z,11.89
2022-09-26T19:40:23.741Z,11.86
2022-09-26T19:43:26.814Z,11.84
2022-09-26T19:46:30.587Z,11.86
2022-09-26T19:49:33.801Z,11.87
2022-09-26T19:52:36.486Z,11.88
2022-09-26T19:55:40.019Z,11.92
2022-09-26T19:58:43.056Z,11.84
2022-09-26T20:01:49.344Z,11.71
2022-09-26T20:04:52.349Z,11.68
2022-09-26T20:07:55.117Z,11.69
2022-09-26T20:10:59.131Z,11.68
2022-09-26T20:14:20.348Z,11.71
2022-09-26T20:17:27.010Z,11.62
2022-09-26T20:20:31.633Z,11.69
2022-09-26T20:23:35.693Z,11.71
2022-09-26T20:26:39.298Z,11.77
2022-09-26T20:30:00.937Z,11.58
2022-09-26T20:33:04.750Z,11.60
2022-09-26T20:36:12.128Z,11.68
2022-09-26T20:39:26.113Z,11.72
2022-09-26T20:42:35.571Z,11.78
2022-09-26T20:45:40.968Z,11.80
2022-09-26T20:48:47.150Z,11.81
2022-09-26T20:51:51.036Z,11.84
2022-09-26T20:54:55.303Z,11.76
2022-09-26T20:58:01.514Z,11.77
2022-09-26T21:01:04.625Z,11.69
2022-09-26T21:04:13.659Z,11.77
2022-09-26T21:07:16.707Z,11.81
2022-09-26T21:10:22.406Z,11.78
2022-09-26T21:13:25.452Z,11.76
2022-09-26T21:16:28.244Z,11.76
2022-09-26T21:19:32.738Z,11.76
2022-09-26T21:22:38.700Z,11.82
2022-09-26T21:25:41.755Z,11.84
2022-09-26T21:28:44.723Z,11.85
2022-09-26T21:31:50.438Z,11.89
2022-09-26T21:35:02.922Z,11.87
2022-09-26T21:38:05.949Z,11.86
2022-09-26T21:41:09.682Z,11.93
2022-09-26T21:44:20.821Z,11.77
2022-09-26T21:47:24.672Z,11.73
2022-09-26T21:50:29.033Z,11.72
2022-09-26T21:53:46.221Z,11.72
2022-09-26T21:56:54.530Z,11.71
2022-09-26T21:59:58.374Z,11.68
2022-09-26T22:03:01.328Z,11.61
2022-09-26T22:06:12.078Z,11.59
2022-09-26T22:09:15.090Z,11.55
2022-09-26T22:12:19.369Z,11.62
2022-09-26T22:15:22.061Z,11.59
2022-09-26T22:18:24.919Z,11.47
2022-09-26T22:21:27.562Z,11.52
2022-09-26T22:24:30.561Z,11.52
2022-09-26T22:27:34.888Z,11.48
2022-09-26T22:30:39.393Z,11.55
2022-09-26T22:33:42.164Z,11.49
2022-09-26T22:36:45.143Z,11.53
2022-09-26T22:39:48.085Z,11.54
2022-09-26T22:42:51.107Z,11.54
2022-09-26T22:45:59.963Z,11.56
2022-09-26T22:49:03.017Z,11.59
2022-09-26T22:52:05.546Z,11.59
2022-09-26T22:55:08.814Z,11.55
2022-09-26T22:58:11.740Z,11.54
2022-09-26T23:01:17.765Z,11.57
2022-09-26T23:04:20.422Z,11.76
2022-09-26T23:07:23.274Z,11.67
2022-09-26T23:10:25.934Z,11.49
2022-09-26T23:13:31.604Z,11.36
2022-09-26T23:16:34.761Z,11.36
2022-09-26T23:19:38.225Z,11.31
2022-09-26T23:22:40.971Z,11.32
2022-09-26T23:25:48.559Z,11.25
2022-09-26T23:28:54.711Z,11.29
2022-09-26T23:31:57.889Z,11.23
2022-09-26T23:35:00.581Z,11.31
2022-09-26T23:38:05.372Z,11.24
2022-09-26T23:41:10.182Z,11.16
2022-09-26T23:44:13.089Z,11.03
2022-09-26T23:47:15.628Z,11.00
2022-09-26T23:50:18.552Z,11.01
2022-09-26T23:53:21.258Z,11.01
2022-09-26T23:56:24.439Z,10.90
2022-09-26T23:59:27.137Z,10.93
